createdAt,value
2022-09-13T00:01:46.513Z,80.43
2022-09-13T00:04:15.857Z,82.47
2022-09-13T00:06:46.332Z,90.85
2022-09-13T00:09:17.040Z,89.05
2022-09-13T00:11:46.260Z,88.28
2022-09-13T00:14:15.396Z,87.97
2022-09-13T00:16:44.575Z,91.10
2022-09-13T00:19:13.794Z,88.30
2022-09-13T00:21:43.066Z,102.63
2022-09-13T00:24:12.659Z,101.30
2022-09-13T00:26:43.342Z,82.57
2022-09-13T00:29:12.570Z,90.05
2022-09-13T00:31:41.801Z,92.43
2022-09-13T00:34:11.172Z,78.15
2022-09-13T00:36:40.390Z,88.32
2022-09-13T00:39:10.615Z,88.85
2022-09-13T00:41:40.255Z,93.32
2022-09-13T00:44:55.137Z,91.28
2022-09-13T00:47:33.682Z,88.35
2022-09-13T00:50:12.923Z,84.68
2022-09-13T00:52:46.647Z,91.18
2022-09-13T00:55:22.722Z,94.70
2022-09-13T00:57:53.099Z,89.00
2022-09-13T01:00:25.721Z,92.28
2022-09-13T01:03:00.568Z,85.30
2022-09-13T01:05:37.853Z,78.63
2022-09-13T01:08:18.197Z,84.95
2022-09-13T01:10:49.755Z,78.25
2022-09-13T01:13:23.029Z,82.00
2022-09-13T01:15:54.122Z,88.38
2022-09-13T01:18:23.327Z,79.63
2022-09-13T01:21:44.916Z,74.43
2022-09-13T01:25:05.974Z,74.55
2022-09-13T01:27:49.460Z,48.20
2022-09-13T01:30:21.937Z,66.50
2022-09-13T01:33:09.357Z,63.75
2022-09-13T01:35:51.897Z,71.38
2022-09-13T01:38:40.533Z,47.47
2022-09-13T01:41:25.513Z,60.85
2022-09-13T01:44:04.933Z,57.08
2022-09-13T01:46:45.030Z,60.42
2022-09-13T01:49:21.561Z,54.00
2022-09-13T01:52:00.328Z,65.10
2022-09-13T01:54:39.885Z,45.63
2022-09-13T01:57:17.337Z,54.88
2022-09-13T01:59:52.624Z,64.88
2022-09-13T02:02:32.904Z,50.67
2022-09-13T02:05:10.058Z,56.50
2022-09-13T02:07:44.281Z,44.78
2022-09-13T02:10:22.190Z,62.95
2022-09-13T02:12:54.733Z,64.43
2022-09-13T02:15:28.517Z,34.83
2022-09-13T02:18:09.665Z,66.18
2022-09-13T02:20:44.491Z,47.28
2022-09-13T02:23:17.911Z,60.33
2022-09-13T02:25:49.861Z,53.38
2022-09-13T02:28:28.691Z,60.67
2022-09-13T02:31:00.731Z,44.67
2022-09-13T02:33:37.178Z,41.75
2022-09-13T02:36:10.031Z,48.85
2022-09-13T02:38:45.569Z,45.47
2022-09-13T02:41:20.261Z,42.38
2022-09-13T02:43:55.135Z,43.70
2022-09-13T02:46:41.024Z,51.40
2022-09-13T02:49:19.013Z,37.97
2022-09-13T02:51:57.171Z,33.75
2022-09-13T02:54:34.308Z,40.33
2022-09-13T02:57:10.855Z,35.90
2022-09-13T02:59:40.399Z,29.08
2022-09-13T03:02:15.391Z,31.10
2022-09-13T03:04:46.390Z,34.50
2022-09-13T03:07:16.507Z,36.47
2022-09-13T03:09:51.483Z,34.17
2022-09-13T03:12:49.105Z,31.17
2022-09-13T03:15:37.254Z,24.50
2022-09-13T03:18:21.418Z,26.08
2022-09-13T03:21:03.165Z,28.60
2022-09-13T03:23:50.380Z,27.25
2022-09-13T03:26:28.660Z,21.90
2022-09-13T03:29:15.118Z,24.85
2022-09-13T03:31:55.444Z,25.80
2022-09-13T03:34:35.102Z,28.80
2022-09-13T03:37:16.235Z,25.58
2022-09-13T03:39:52.355Z,24.25
2022-09-13T03:42:29.773Z,22.90
2022-09-13T03:45:02.020Z,28.63
2022-09-13T03:47:35.148Z,24.55
2022-09-13T03:50:07.328Z,30.00
2022-09-13T03:52:39.786Z,33.97
2022-09-13T03:55:11.538Z,26.85
2022-09-13T03:57:40.683Z,29.45
2022-09-13T04:00:14.118Z,37.03
2022-09-13T04:02:43.398Z,31.27
2022-09-13T04:05:12.720Z,34.63
2022-09-13T04:07:48.926Z,25.83
2022-09-13T04:10:18.082Z,30.05
2022-09-13T04:12:47.192Z,26.52
2022-09-13T04:15:16.924Z,25.08
2022-09-13T04:17:46.060Z,26.10
2022-09-13T04:20:15.734Z,28.70
2022-09-13T04:22:45.248Z,26.80
2022-09-13T04:25:16.247Z,29.60
2022-09-13T04:27:45.412Z,25.58
2022-09-13T04:30:15.295Z,23.67
2022-09-13T04:32:45.573Z,24.77
2022-09-13T04:35:17.212Z,25.48
2022-09-13T04:37:46.782Z,24.42
2022-09-13T04:40:17.612Z,23.50
2022-09-13T04:42:47.056Z,26.13
2022-09-13T04:45:16.326Z,26.35
2022-09-13T04:47:45.597Z,26.42
2022-09-13T04:50:14.820Z,24.70
2022-09-13T04:52:44.120Z,25.85
2022-09-13T04:55:13.387Z,24.15
2022-09-13T04:57:43.946Z,27.17
2022-09-13T05:00:13.932Z,26.02
2022-09-13T05:02:43.103Z,27.95
2022-09-13T05:05:12.298Z,28.65
2022-09-13T05:07:41.438Z,29.60
2022-09-13T05:10:12.750Z,29.63
2022-09-13T05:15:13.880Z,32.97
2022-09-13T05:17:43.162Z,25.75
2022-09-13T05:20:12.938Z,25.40
2022-09-13T05:22:42.054Z,24.25
2022-09-13T05:25:11.769Z,25.23
2022-09-13T05:27:40.941Z,26.42
2022-09-13T05:30:13.883Z,23.73
2022-09-13T05:32:43.064Z,27.67
2022-09-13T05:35:12.217Z,26.73
2022-09-13T05:37:41.383Z,26.70
2022-09-13T05:40:12.486Z,26.35
2022-09-13T05:42:42.191Z,23.85
2022-09-13T05:45:12.982Z,24.65
2022-09-13T05:47:42.127Z,23.67
2022-09-13T05:50:22.945Z,27.63
2022-09-13T05:53:00.896Z,25.63
2022-09-13T05:55:31.089Z,25.02
2022-09-13T05:58:00.235Z,25.55
2022-09-13T06:00:31.915Z,27.42
2022-09-13T06:03:01.121Z,23.90
2022-09-13T06:05:32.033Z,23.98
2022-09-13T06:08:01.289Z,25.60
2022-09-13T06:10:30.477Z,25.50
2022-09-13T06:12:59.591Z,26.77
2022-09-13T06:15:30.165Z,22.38
2022-09-13T06:17:59.659Z,24.33
2022-09-13T06:20:28.928Z,28.38
2022-09-13T06:22:58.009Z,28.05
2022-09-13T06:25:27.162Z,29.00
2022-09-13T06:27:56.450Z,26.02
2022-09-13T06:30:25.636Z,25.67
2022-09-13T06:32:57.830Z,24.83
2022-09-13T06:35:27.209Z,31.55
2022-09-13T06:37:58.889Z,27.58
2022-09-13T06:40:29.010Z,24.17
2022-09-13T06:42:58.439Z,25.60
2022-09-13T06:45:28.290Z,26.48
2022-09-13T06:47:59.081Z,28.48
2022-09-13T06:50:40.799Z,26.63
2022-09-13T06:53:10.448Z,26.25
2022-09-13T06:55:39.923Z,25.95
2022-09-13T06:58:14.710Z,29.65
2022-09-13T07:00:52.928Z,30.65
2022-09-13T07:03:28.349Z,49.28
2022-09-13T07:05:59.989Z,54.10
2022-09-13T07:08:32.682Z,69.22
2022-09-13T07:11:02.407Z,72.97
2022-09-13T07:13:31.613Z,81.75
2022-09-13T07:16:04.696Z,84.93
2022-09-13T07:18:35.734Z,84.82
2022-09-13T07:21:08.988Z,87.75
2022-09-13T07:23:41.301Z,84.40
2022-09-13T07:26:13.006Z,93.63
2022-09-13T07:28:44.238Z,86.97
2022-09-13T07:31:19.672Z,89.55
2022-09-13T07:33:55.576Z,95.80
2022-09-13T07:36:25.510Z,84.15
2022-09-13T07:38:58.792Z,90.78
2022-09-13T07:41:32.331Z,83.75
2022-09-13T07:44:03.112Z,69.60
2022-09-13T07:46:43.722Z,71.50
2022-09-13T07:49:21.602Z,76.32
2022-09-13T07:51:53.294Z,70.60
2022-09-13T07:54:22.519Z,61.13
2022-09-13T07:56:52.028Z,61.08
2022-09-13T07:59:21.456Z,50.88
2022-09-13T08:01:52.621Z,55.60
2022-09-13T08:04:27.158Z,58.15
2022-09-13T08:06:56.648Z,57.03
2022-09-13T08:09:27.966Z,52.45
2022-09-13T08:11:57.239Z,59.00
2022-09-13T08:14:29.632Z,56.58
2022-09-13T08:17:00.252Z,54.80
2022-09-13T08:19:31.051Z,55.35
2022-09-13T08:22:01.106Z,51.53
2022-09-13T08:24:30.265Z,58.80
2022-09-13T08:26:59.501Z,56.78
2022-09-13T08:29:28.651Z,58.08
2022-09-13T08:31:57.863Z,56.42
2022-09-13T08:34:27.368Z,55.38
2022-09-13T08:36:58.544Z,58.50
2022-09-13T08:39:29.313Z,56.85
2022-09-13T08:42:21.045Z,61.47
2022-09-13T08:44:54.665Z,56.95
2022-09-13T08:47:35.841Z,53.75
2022-09-13T08:50:17.441Z,54.53
2022-09-13T08:53:10.015Z,55.58
2022-09-13T08:55:52.703Z,55.92
2022-09-13T09:01:48.622Z,52.03
2022-09-13T09:04:36.258Z,54.28
2022-09-13T09:07:14.623Z,59.10
2022-09-13T09:09:52.460Z,59.58
2022-09-13T09:12:35.335Z,57.33
2022-09-13T09:15:21.457Z,53.88
2022-09-13T09:18:01.371Z,63.03
2022-09-13T09:20:39.151Z,61.70
2022-09-13T09:23:20.975Z,65.53
2022-09-13T09:26:02.209Z,68.97
2022-09-13T09:28:31.763Z,72.47
2022-09-13T09:31:06.274Z,68.03
2022-09-13T09:34:02.326Z,63.45
2022-09-13T09:36:43.434Z,64.57
2022-09-13T09:39:16.455Z,73.32
2022-09-13T09:41:47.673Z,78.75
2022-09-13T09:44:22.806Z,72.03
2022-09-13T09:47:03.575Z,90.00
2022-09-13T09:50:00.072Z,74.68
2022-09-13T09:52:37.116Z,53.63
2022-09-13T09:55:27.026Z,79.63
2022-09-13T09:58:01.551Z,84.93
2022-09-13T10:00:36.644Z,69.20
2022-09-13T10:03:19.177Z,109.55
2022-09-13T10:05:48.981Z,111.95
2022-09-13T10:08:32.300Z,105.43
2022-09-13T10:11:03.293Z,134.85
2022-09-13T10:13:34.654Z,147.85
2022-09-13T10:16:24.837Z,170.20
2022-09-13T10:18:59.872Z,110.25
2022-09-13T10:21:30.687Z,142.57
2022-09-13T10:24:22.803Z,131.85
2022-09-13T10:26:57.070Z,146.63
2022-09-13T10:29:29.745Z,121.57
2022-09-13T10:32:03.784Z,91.40
2022-09-13T10:34:39.769Z,127.75
2022-09-13T10:37:21.685Z,93.20
2022-09-13T10:40:04.039Z,108.88
2022-09-13T10:42:37.170Z,92.85
2022-09-13T10:45:10.728Z,105.57
2022-09-13T10:47:46.457Z,112.88
2022-09-13T10:50:25.205Z,104.75
2022-09-13T10:52:56.395Z,110.43
2022-09-13T10:55:36.148Z,75.90
2022-09-13T10:58:19.395Z,100.18
2022-09-13T11:01:38.289Z,76.63
2022-09-13T11:05:07.016Z,70.78
2022-09-13T11:08:24.103Z,70.03
2022-09-13T11:11:11.319Z,61.85
2022-09-13T11:14:04.400Z,65.97
2022-09-13T11:16:54.535Z,77.13
2022-09-13T11:20:13.470Z,123.32
2022-09-13T11:23:23.773Z,64.88
2022-09-13T11:26:14.375Z,70.03
2022-09-13T11:28:55.826Z,91.88
2022-09-13T11:31:43.171Z,70.63
2022-09-13T11:34:30.054Z,73.95
2022-09-13T11:37:17.845Z,86.68
2022-09-13T11:40:00.877Z,84.72
2022-09-13T11:42:44.606Z,89.10
2022-09-13T11:45:27.411Z,101.13
2022-09-13T11:50:57.678Z,68.47
2022-09-13T11:53:59.606Z,97.00
2022-09-13T11:56:35.826Z,138.73
2022-09-13T11:59:22.117Z,156.73
2022-09-13T12:01:56.915Z,153.57
2022-09-13T12:04:34.686Z,145.70
2022-09-13T12:07:11.753Z,183.52
2022-09-13T12:09:53.306Z,140.18
2022-09-13T12:12:26.452Z,169.90
2022-09-13T12:15:01.377Z,169.98
2022-09-13T12:17:36.397Z,173.77
2022-09-13T12:20:17.330Z,225.43
2022-09-13T12:22:49.146Z,191.15
2022-09-13T12:25:24.104Z,174.52
2022-09-13T12:28:05.765Z,164.38
2022-09-13T12:30:43.995Z,167.35
2022-09-13T12:33:17.057Z,177.05
2022-09-13T12:36:02.176Z,169.02
2022-09-13T12:39:18.159Z,159.63
2022-09-13T12:42:07.822Z,166.70
2022-09-13T12:45:08.321Z,151.32
2022-09-13T12:48:15.304Z,161.65
2022-09-13T12:51:06.691Z,183.70
2022-09-13T12:54:07.599Z,169.80
2022-09-13T12:56:57.006Z,166.98
2022-09-13T12:59:50.817Z,159.02
2022-09-13T13:02:35.872Z,150.07
2022-09-13T13:05:19.406Z,185.52
2022-09-13T13:07:57.974Z,168.60
2022-09-13T13:10:33.171Z,179.93
2022-09-13T13:13:16.089Z,172.30
2022-09-13T13:16:25.467Z,138.82
2022-09-13T13:18:55.626Z,203.52
2022-09-13T13:21:33.865Z,127.88
2022-09-13T13:24:52.089Z,165.05
2022-09-13T13:27:48.391Z,172.80
2022-09-13T13:30:52.539Z,152.27
2022-09-13T13:33:27.369Z,189.43
2022-09-13T13:35:56.968Z,181.10
2022-09-13T13:38:47.674Z,161.88
2022-09-13T13:41:53.657Z,197.98
2022-09-13T13:45:22.390Z,219.27
2022-09-13T13:48:12.280Z,199.48
2022-09-13T13:51:20.429Z,268.50
2022-09-13T13:54:01.978Z,247.70
2022-09-13T13:56:49.986Z,209.07
2022-09-13T13:59:29.245Z,200.77
2022-09-13T14:02:02.057Z,168.43
2022-09-13T14:05:19.411Z,171.40
2022-09-13T14:08:27.326Z,135.20
2022-09-13T14:11:05.065Z,154.32
2022-09-13T14:13:54.787Z,141.35
2022-09-13T14:16:40.279Z,172.07
2022-09-13T14:19:24.363Z,191.05
2022-09-13T14:22:20.427Z,186.40
2022-09-13T14:24:51.317Z,148.50
2022-09-13T14:27:24.726Z,169.73
2022-09-13T14:29:58.860Z,208.38
2022-09-13T14:32:37.159Z,197.20
2022-09-13T14:35:30.755Z,235.10
2022-09-13T14:38:14.424Z,210.20
2022-09-13T14:40:49.353Z,132.38
2022-09-13T14:43:21.220Z,139.77
2022-09-13T14:45:59.489Z,142.27
2022-09-13T14:48:34.156Z,108.60
2022-09-13T14:51:09.893Z,138.85
2022-09-13T14:53:41.462Z,102.25
2022-09-13T14:56:18.138Z,131.70
2022-09-13T14:58:52.149Z,116.85
2022-09-13T15:01:29.960Z,120.55
2022-09-13T15:04:01.663Z,132.43
2022-09-13T15:06:33.835Z,108.75
2022-09-13T15:09:18.839Z,135.77
2022-09-13T15:12:01.183Z,143.00
2022-09-13T15:14:34.965Z,131.85
2022-09-13T15:17:14.259Z,117.35
2022-09-13T15:19:45.755Z,123.72
2022-09-13T15:22:20.965Z,123.25
2022-09-13T15:24:53.314Z,125.53
2022-09-13T15:27:30.664Z,117.88
2022-09-13T15:30:03.387Z,108.68
2022-09-13T15:32:43.143Z,97.72
2022-09-13T15:35:24.737Z,92.60
2022-09-13T15:38:02.214Z,103.65
2022-09-13T15:40:42.671Z,90.15
2022-09-13T15:43:11.851Z,128.43
2022-09-13T15:45:43.538Z,90.40
2022-09-13T15:48:26.455Z,102.77
2022-09-13T15:51:11.932Z,119.00
2022-09-13T15:53:46.875Z,125.18
2022-09-13T15:56:19.487Z,115.38
2022-09-13T16:01:20.303Z,100.32
2022-09-13T16:03:51.012Z,111.30
2022-09-13T16:06:24.441Z,119.47
2022-09-13T16:08:54.386Z,124.63
2022-09-13T16:11:23.554Z,135.00
2022-09-13T16:13:52.721Z,121.63
2022-09-13T16:16:22.176Z,129.52
2022-09-13T16:18:52.811Z,119.18
2022-09-13T16:21:22.041Z,135.77
2022-09-13T16:23:51.306Z,127.55
2022-09-13T16:26:20.432Z,161.35
2022-09-13T16:28:49.737Z,153.02
2022-09-13T16:31:20.295Z,146.63
2022-09-13T16:33:54.185Z,145.80
2022-09-13T16:36:23.823Z,129.55
2022-09-13T16:38:52.937Z,133.57
2022-09-13T16:41:22.561Z,137.57
2022-09-13T16:43:51.779Z,145.10
2022-09-13T16:46:21.105Z,134.55
2022-09-13T16:48:55.673Z,158.93
2022-09-13T16:51:25.773Z,163.48
2022-09-13T16:53:56.065Z,149.75
2022-09-13T16:56:27.407Z,171.10
2022-09-13T16:58:57.271Z,164.13
2022-09-13T17:01:29.395Z,166.02
2022-09-13T17:04:02.386Z,155.77
2022-09-13T17:06:32.528Z,162.95
2022-09-13T17:09:05.428Z,167.65
2022-09-13T17:11:38.630Z,153.15
2022-09-13T17:14:11.010Z,176.35
2022-09-13T17:16:44.580Z,207.80
2022-09-13T17:19:20.943Z,171.90
2022-09-13T17:21:51.561Z,176.52
2022-09-13T17:24:20.930Z,188.60
2022-09-13T17:26:50.077Z,160.30
2022-09-13T17:29:23.392Z,193.77
2022-09-13T17:31:52.715Z,214.60
2022-09-13T17:34:23.264Z,189.77
2022-09-13T17:36:52.577Z,183.52
2022-09-13T17:39:22.386Z,169.45
2022-09-13T17:41:51.706Z,172.32
2022-09-13T17:44:21.324Z,169.88
2022-09-13T17:46:50.718Z,170.40
2022-09-13T17:49:20.201Z,197.57
2022-09-13T17:51:50.833Z,174.05
2022-09-13T17:54:20.353Z,205.63
2022-09-13T17:56:51.622Z,176.30
2022-09-13T17:59:23.039Z,186.65
2022-09-13T18:01:54.881Z,201.07
2022-09-13T18:04:25.773Z,189.60
2022-09-13T18:06:56.567Z,187.00
2022-09-13T18:09:27.024Z,195.45
2022-09-13T18:11:56.184Z,204.75
2022-09-13T18:14:27.708Z,175.30
2022-09-13T18:16:58.144Z,186.30
2022-09-13T18:19:44.779Z,191.93
2022-09-13T18:22:17.342Z,159.85
2022-09-13T18:24:46.838Z,186.35
2022-09-13T18:27:16.111Z,157.07
2022-09-13T18:29:45.346Z,161.60
2022-09-13T18:32:14.594Z,152.32
2022-09-13T18:34:44.351Z,135.75
2022-09-13T18:37:13.735Z,151.38
2022-09-13T18:39:44.243Z,136.55
2022-09-13T18:42:13.494Z,123.78
2022-09-13T18:44:42.617Z,110.93
2022-09-13T18:47:13.120Z,102.70
2022-09-13T18:49:42.335Z,112.53
2022-09-13T18:52:12.460Z,106.35
2022-09-13T18:54:43.422Z,107.35
2022-09-13T18:57:12.658Z,93.28
2022-09-13T18:59:41.832Z,111.07
2022-09-13T19:02:11.965Z,99.13
2022-09-13T19:04:41.351Z,100.18
2022-09-13T19:07:10.811Z,84.95
2022-09-13T19:09:40.246Z,101.95
2022-09-13T19:12:11.096Z,104.88
2022-09-13T19:14:40.390Z,84.18
2022-09-13T19:17:09.713Z,95.15
2022-09-13T19:19:39.109Z,94.60
2022-09-13T19:22:08.401Z,92.78
2022-09-13T19:24:38.458Z,99.95
2022-09-13T19:27:07.664Z,91.97
2022-09-13T19:29:38.696Z,93.43
2022-09-13T19:32:07.991Z,101.95
2022-09-13T19:34:37.535Z,92.38
2022-09-13T19:37:06.981Z,94.72
2022-09-13T19:39:36.248Z,89.72
2022-09-13T19:42:05.929Z,91.15
2022-09-13T19:44:35.278Z,96.40
2022-09-13T19:47:53.106Z,92.38
2022-09-13T19:49:56.816Z,95.47
2022-09-13T19:52:26.181Z,99.53
2022-09-13T19:54:56.480Z,87.47
2022-09-13T19:57:26.696Z,82.20
2022-09-13T19:59:55.856Z,97.97
2022-09-13T20:02:26.746Z,101.00
2022-09-13T20:04:56.101Z,99.57
2022-09-13T20:07:25.456Z,90.20
2022-09-13T20:09:54.796Z,91.10
2022-09-13T20:12:24.321Z,90.80
2022-09-13T20:14:53.466Z,94.70
2022-09-13T20:17:22.646Z,100.45
2022-09-13T20:19:54.136Z,100.70
2022-09-13T20:22:23.364Z,88.85
2022-09-13T20:24:52.712Z,94.85
2022-09-13T20:27:22.096Z,94.00
2022-09-13T20:29:51.884Z,94.30
2022-09-13T20:32:21.247Z,97.65
2022-09-13T20:34:52.536Z,94.82
2022-09-13T20:37:22.686Z,94.45
2022-09-13T20:39:52.125Z,102.60
2022-09-13T20:42:21.598Z,107.10
2022-09-13T20:44:50.759Z,110.00
2022-09-13T20:47:20.058Z,104.47
2022-09-13T20:49:49.273Z,102.57
2022-09-13T20:52:19.877Z,122.10
2022-09-13T20:54:49.224Z,134.57
2022-09-13T20:57:18.600Z,121.45
2022-09-13T20:59:48.011Z,104.95
2022-09-13T21:02:17.274Z,111.30
2022-09-13T21:04:46.766Z,114.80
2022-09-13T21:07:33.762Z,117.93
2022-09-13T21:10:05.457Z,113.78
2022-09-13T21:12:35.859Z,117.20
2022-09-13T21:15:07.068Z,121.22
2022-09-13T21:17:36.596Z,114.82
2022-09-13T21:20:06.950Z,114.95
2022-09-13T21:22:37.226Z,115.75
2022-09-13T21:25:09.805Z,112.03
2022-09-13T21:27:41.721Z,122.38
2022-09-13T21:30:12.076Z,121.30
2022-09-13T21:32:42.034Z,122.90
2022-09-13T21:35:13.226Z,121.22
2022-09-13T21:37:42.718Z,124.03
2022-09-13T21:40:14.120Z,119.22
2022-09-13T21:42:43.355Z,122.38
2022-09-13T21:45:12.896Z,114.55
2022-09-13T21:47:42.179Z,112.55
2022-09-13T21:50:11.807Z,125.13
2022-09-13T21:52:41.726Z,102.18
2022-09-13T21:55:12.468Z,111.22
2022-09-13T21:57:43.970Z,110.38
2022-09-13T22:02:45.106Z,79.65
2022-09-13T22:05:14.832Z,97.13
2022-09-13T22:07:44.076Z,118.82
2022-09-13T22:10:14.605Z,120.47
2022-09-13T22:12:43.757Z,112.60
2022-09-13T22:15:13.214Z,122.00
2022-09-13T22:17:42.410Z,109.93
2022-09-13T22:20:12.166Z,102.35
2022-09-13T22:22:41.263Z,99.60
2022-09-13T22:25:10.918Z,105.25
2022-09-13T22:27:41.473Z,113.78
2022-09-13T22:30:12.289Z,109.45
2022-09-13T22:32:41.578Z,116.13
2022-09-13T22:35:11.592Z,111.47
2022-09-13T22:37:40.857Z,99.25
2022-09-13T22:40:11.493Z,96.90
2022-09-13T22:42:42.017Z,114.25
2022-09-13T22:45:11.873Z,95.80
2022-09-13T22:47:40.979Z,111.35
2022-09-13T22:50:11.006Z,118.85
2022-09-13T22:52:40.137Z,102.82
2022-09-13T22:55:10.197Z,106.88
2022-09-13T22:57:39.330Z,105.80
2022-09-13T23:00:12.834Z,105.25
2022-09-13T23:02:46.451Z,126.65
2022-09-13T23:05:17.090Z,120.53
2022-09-13T23:07:46.266Z,108.25
2022-09-13T23:10:15.601Z,108.80
2022-09-13T23:12:45.592Z,98.65
2022-09-13T23:15:16.426Z,114.97
2022-09-13T23:17:45.602Z,109.72
2022-09-13T23:20:14.883Z,98.53
2022-09-13T23:22:44.116Z,92.22
2022-09-13T23:25:13.344Z,96.00
2022-09-13T23:27:42.640Z,91.25
2022-09-13T23:30:13.100Z,99.93
2022-09-13T23:32:43.787Z,93.35
2022-09-13T23:35:12.898Z,94.03
2022-09-13T23:37:42.068Z,96.18
2022-09-13T23:40:12.020Z,91.85
2022-09-13T23:42:41.294Z,94.10
2022-09-13T23:45:12.249Z,83.65
2022-09-13T23:47:42.752Z,89.20
2022-09-13T23:50:12.211Z,97.47
2022-09-13T23:52:41.338Z,89.35
2022-09-13T23:55:14.732Z,95.55
2022-09-13T23:57:43.872Z,87.55
